createdAt,value
2024-05-09T00:00:30.424Z,98.71
2024-05-09T00:01:23.572Z,98.91
2024-05-09T00:02:23.692Z,99.02
2024-05-09T00:03:23.558Z,99.02
2024-05-09T00:04:23.503Z,99.11
2024-05-09T00:05:23.639Z,99.32
2024-05-09T00:06:23.445Z,99.43
2024-05-09T00:07:23.475Z,99.52
2024-05-09T00:08:23.444Z,99.52
2024-05-09T00:09:23.389Z,99.52
2024-05-09T00:10:32.624Z,99.43
2024-05-09T00:11:23.539Z,99.32
2024-05-09T00:12:23.455Z,99.22
2024-05-09T00:13:23.354Z,99.11
2024-05-09T00:14:23.375Z,99.11
2024-05-09T00:15:23.346Z,99.11
2024-05-09T00:16:23.334Z,99.02
2024-05-09T00:17:23.470Z,98.91
2024-05-09T00:18:23.534Z,98.86
2024-05-09T00:19:23.356Z,98.86
2024-05-09T00:20:28.583Z,98.96
2024-05-09T00:21:23.266Z,98.96
2024-05-09T00:22:23.278Z,98.96
2024-05-09T00:23:23.314Z,99.06
2024-05-09T00:24:23.213Z,98.86
2024-05-09T00:25:23.228Z,98.86
2024-05-09T00:26:23.225Z,98.65
2024-05-09T00:27:23.175Z,98.75
2024-05-09T00:28:23.154Z,98.96
2024-05-09T00:29:23.229Z,98.96
2024-05-09T00:30:31.632Z,98.96
2024-05-09T00:31:23.133Z,98.96
2024-05-09T00:32:23.254Z,99.06
2024-05-09T00:33:23.351Z,98.96
2024-05-09T00:34:23.212Z,98.86
2024-05-09T00:35:23.301Z,98.86
2024-05-09T00:36:23.052Z,98.75
2024-05-09T00:37:23.043Z,98.75
2024-05-09T00:38:23.057Z,98.86
2024-05-09T00:39:23.005Z,98.75
2024-05-09T00:40:31.090Z,98.65
2024-05-09T00:41:23.032Z,98.65
2024-05-09T00:42:22.978Z,98.55
2024-05-09T00:43:23.018Z,98.45
2024-05-09T00:44:23.055Z,98.45
2024-05-09T00:45:22.914Z,98.55
2024-05-09T00:46:22.907Z,98.55
2024-05-09T00:47:23.189Z,98.65
2024-05-09T00:48:22.957Z,98.61
2024-05-09T00:49:23.079Z,98.50
2024-05-09T00:50:29.896Z,98.30
2024-05-09T00:51:22.879Z,98.10
2024-05-09T00:52:22.855Z,97.79
2024-05-09T00:53:22.871Z,97.58
2024-05-09T00:54:22.816Z,97.08
2024-05-09T00:55:22.805Z,96.67
2024-05-09T00:56:22.808Z,96.56
2024-05-09T00:57:22.810Z,96.51
2024-05-09T00:58:22.774Z,96.51
2024-05-09T00:59:22.839Z,96.61
2024-05-09T01:00:31.392Z,96.71
2024-05-09T01:01:22.824Z,96.92
2024-05-09T01:02:22.819Z,97.12
2024-05-09T01:03:23.128Z,97.22
2024-05-09T01:04:22.743Z,97.22
2024-05-09T01:05:22.703Z,97.33
2024-05-09T01:06:22.664Z,97.12
2024-05-09T01:07:22.646Z,97.02
2024-05-09T01:08:22.707Z,97.06
2024-05-09T01:09:22.628Z,97.06
2024-05-09T01:10:28.178Z,97.06
2024-05-09T01:11:22.807Z,97.06
2024-05-09T01:12:22.639Z,97.16
2024-05-09T01:13:22.602Z,97.27
2024-05-09T01:14:22.596Z,97.37
2024-05-09T01:15:22.554Z,97.47
2024-05-09T01:16:22.516Z,97.67
2024-05-09T01:17:22.612Z,97.98
2024-05-09T01:18:22.632Z,98.08
2024-05-09T01:19:22.585Z,97.98
2024-05-09T01:20:31.829Z,97.98
2024-05-09T01:21:22.465Z,97.88
2024-05-09T01:22:22.432Z,97.67
2024-05-09T01:23:22.541Z,97.47
2024-05-09T01:24:22.418Z,97.27
2024-05-09T01:25:22.421Z,97.27
2024-05-09T01:26:22.454Z,97.16
2024-05-09T01:27:22.364Z,97.06
2024-05-09T01:28:22.357Z,97.06
2024-05-09T01:29:22.450Z,97.06
2024-05-09T01:30:31.220Z,96.96
2024-05-09T01:31:22.351Z,96.96
2024-05-09T01:32:22.543Z,97.00
2024-05-09T01:33:22.415Z,97.11
2024-05-09T01:34:22.362Z,97.31
2024-05-09T01:35:22.341Z,97.52
2024-05-09T01:36:22.253Z,97.72
2024-05-09T01:37:22.287Z,97.82
2024-05-09T01:38:22.311Z,97.92
2024-05-09T01:39:22.220Z,98.03
2024-05-09T01:40:29.078Z,98.03
2024-05-09T01:41:22.291Z,98.13
2024-05-09T01:42:22.221Z,98.28
2024-05-09T01:43:22.183Z,98.49
2024-05-09T01:44:22.195Z,98.49
2024-05-09T01:45:22.167Z,98.58
2024-05-09T01:46:22.139Z,98.79
2024-05-09T01:47:22.364Z,98.79
2024-05-09T01:48:22.222Z,98.69
2024-05-09T01:49:22.224Z,98.69
2024-05-09T01:50:34.152Z,98.83
2024-05-09T01:51:22.106Z,99.15
2024-05-09T01:52:22.042Z,99.25
2024-05-09T01:53:22.104Z,99.35
2024-05-09T01:54:22.067Z,99.45
2024-05-09T01:55:22.020Z,99.45
2024-05-09T01:56:22.029Z,99.55
2024-05-09T01:57:21.975Z,99.55
2024-05-09T01:58:21.950Z,99.66
2024-05-09T01:59:21.953Z,99.86
2024-05-09T02:00:30.525Z,99.86
2024-05-09T02:01:21.973Z,99.99
2024-05-09T02:02:21.997Z,99.99
2024-05-09T02:03:22.102Z,99.99
2024-05-09T02:04:22.129Z,99.99
2024-05-09T02:05:22.082Z,99.99
2024-05-09T02:06:21.857Z,99.99
2024-05-09T02:07:21.832Z,99.99
2024-05-09T02:08:22.235Z,99.99
2024-05-09T02:09:21.842Z,99.99
2024-05-09T02:10:26.513Z,99.99
2024-05-09T02:11:21.890Z,99.99
2024-05-09T02:12:21.897Z,99.99
2024-05-09T02:13:21.771Z,99.99
2024-05-09T02:14:21.826Z,99.99
2024-05-09T02:15:21.757Z,99.99
2024-05-09T02:16:21.728Z,99.99
2024-05-09T02:17:21.843Z,99.99
2024-05-09T02:18:21.844Z,99.99
2024-05-09T02:19:21.889Z,99.99
2024-05-09T02:20:30.271Z,99.99
2024-05-09T02:21:21.702Z,99.99
2024-05-09T02:22:21.651Z,99.99
2024-05-09T02:23:21.752Z,99.99
2024-05-09T02:24:21.618Z,99.99
2024-05-09T02:25:21.608Z,99.99
2024-05-09T02:26:21.691Z,99.99
2024-05-09T02:27:21.599Z,99.99
2024-05-09T02:28:21.564Z,99.99
2024-05-09T02:29:21.661Z,99.99
2024-05-09T02:30:30.004Z,99.99
2024-05-09T02:31:21.550Z,99.99
2024-05-09T02:32:21.621Z,99.99
2024-05-09T02:33:21.854Z,99.99
2024-05-09T02:34:21.642Z,99.99
2024-05-09T02:35:21.567Z,99.99
2024-05-09T02:36:21.492Z,99.99
2024-05-09T02:37:21.454Z,99.99
2024-05-09T02:38:21.536Z,99.99
2024-05-09T02:39:21.428Z,99.99
2024-05-09T02:40:25.766Z,99.99
2024-05-09T02:41:21.487Z,99.99
2024-05-09T02:42:21.373Z,99.99
2024-05-09T02:43:21.392Z,99.99
2024-05-09T02:44:21.410Z,99.99
2024-05-09T02:45:21.350Z,99.99
2024-05-09T02:46:21.324Z,99.99
2024-05-09T02:47:21.580Z,99.99
2024-05-09T02:48:21.608Z,99.99
2024-05-09T02:49:21.539Z,99.99
2024-05-09T02:50:29.749Z,99.99
2024-05-09T02:51:21.307Z,99.99
2024-05-09T02:52:21.269Z,99.99
2024-05-09T02:53:21.255Z,99.99
2024-05-09T02:54:21.237Z,99.60
2024-05-09T02:55:21.198Z,99.29
2024-05-09T02:56:21.334Z,99.09
2024-05-09T02:57:21.188Z,99.09
2024-05-09T02:58:21.165Z,99.09
2024-05-09T02:59:21.434Z,99.19
2024-05-09T03:00:26.466Z,99.04
2024-05-09T03:01:21.232Z,98.78
2024-05-09T03:02:21.408Z,98.47
2024-05-09T03:03:21.231Z,98.16
2024-05-09T03:04:21.208Z,97.91
2024-05-09T03:05:21.211Z,97.80
2024-05-09T03:06:21.165Z,97.80
2024-05-09T03:07:21.188Z,97.95
2024-05-09T03:08:21.097Z,97.95
2024-05-09T03:09:21.029Z,98.10
2024-05-09T03:10:25.616Z,98.20
2024-05-09T03:11:21.230Z,98.66
2024-05-09T03:12:21.050Z,99.17
2024-05-09T03:13:20.980Z,99.58
2024-05-09T03:14:20.993Z,99.79
2024-05-09T03:15:20.953Z,99.99
2024-05-09T03:16:20.983Z,99.99
2024-05-09T03:17:21.027Z,99.99
2024-05-09T03:18:21.048Z,99.99
2024-05-09T03:19:20.933Z,99.99
2024-05-09T03:20:24.298Z,99.99
2024-05-09T03:21:20.922Z,99.99
2024-05-09T03:22:20.882Z,99.99
2024-05-09T03:23:20.898Z,99.99
2024-05-09T03:24:20.815Z,99.99
2024-05-09T03:25:20.838Z,99.99
2024-05-09T03:26:20.826Z,99.99
2024-05-09T03:27:20.817Z,99.99
2024-05-09T03:28:20.785Z,99.99
2024-05-09T03:29:20.813Z,99.99
2024-05-09T03:30:29.621Z,99.99
2024-05-09T03:31:20.788Z,99.99
2024-05-09T03:32:20.937Z,99.99
2024-05-09T03:33:21.323Z,99.99
2024-05-09T03:34:20.820Z,99.99
2024-05-09T03:35:20.714Z,99.99
2024-05-09T03:36:20.677Z,99.99
2024-05-09T03:37:20.659Z,99.99
2024-05-09T03:38:20.681Z,99.99
2024-05-09T03:39:20.690Z,99.99
2024-05-09T03:40:24.004Z,99.99
2024-05-09T03:41:20.681Z,99.99
2024-05-09T03:42:20.640Z,99.99
2024-05-09T03:43:20.614Z,99.99
2024-05-09T03:44:20.589Z,99.99
2024-05-09T03:45:20.551Z,99.99
2024-05-09T03:46:20.563Z,99.99
2024-05-09T03:47:20.706Z,99.99
2024-05-09T03:48:20.705Z,99.99
2024-05-09T03:49:20.588Z,99.99
2024-05-09T03:50:26.353Z,99.99
2024-05-09T03:51:20.523Z,99.99
2024-05-09T03:52:20.461Z,99.99
2024-05-09T03:53:20.499Z,99.99
2024-05-09T03:54:20.434Z,99.99
2024-05-09T03:55:20.420Z,99.99
2024-05-09T03:56:20.520Z,99.99
2024-05-09T03:57:20.429Z,99.99
2024-05-09T03:58:20.377Z,99.99
2024-05-09T03:59:20.461Z,99.99
2024-05-09T04:00:30.425Z,99.99
2024-05-09T04:01:20.419Z,99.99
2024-05-09T04:02:20.390Z,99.99
2024-05-09T04:03:20.654Z,99.99
2024-05-09T04:04:20.374Z,99.99
2024-05-09T04:05:20.345Z,99.99
2024-05-09T04:06:20.292Z,99.99
2024-05-09T04:07:20.282Z,99.99
2024-05-09T04:08:20.318Z,99.99
2024-05-09T04:09:20.244Z,99.99
2024-05-09T04:10:27.762Z,99.99
2024-05-09T04:11:20.332Z,99.99
2024-05-09T04:12:20.283Z,99.99
2024-05-09T04:13:20.239Z,99.99
2024-05-09T04:14:20.300Z,99.99
2024-05-09T04:15:20.176Z,99.99
2024-05-09T04:16:20.142Z,99.99
2024-05-09T04:17:20.160Z,99.99
2024-05-09T04:18:20.196Z,99.99
2024-05-09T04:19:20.414Z,99.99
2024-05-09T04:20:29.316Z,99.99
2024-05-09T04:21:20.090Z,99.99
2024-05-09T04:22:20.065Z,99.99
2024-05-09T04:23:20.172Z,99.99
2024-05-09T04:24:20.075Z,99.99
2024-05-09T04:25:20.022Z,99.99
2024-05-09T04:26:20.035Z,99.99
2024-05-09T04:27:20.042Z,99.99
2024-05-09T04:28:20.008Z,99.99
2024-05-09T04:29:20.050Z,99.99
2024-05-09T04:30:26.475Z,99.99
2024-05-09T04:31:19.956Z,99.99
2024-05-09T04:32:20.046Z,99.99
2024-05-09T04:33:20.389Z,99.99
2024-05-09T04:34:20.006Z,99.99
2024-05-09T04:35:19.960Z,99.99
2024-05-09T04:36:19.930Z,99.99
2024-05-09T04:37:19.874Z,99.99
2024-05-09T04:38:19.962Z,99.99
2024-05-09T04:39:19.873Z,99.99
2024-05-09T04:40:28.115Z,99.99
2024-05-09T04:41:19.874Z,99.99
2024-05-09T04:42:19.818Z,99.99
2024-05-09T04:43:19.790Z,99.99
2024-05-09T04:44:19.838Z,99.99
2024-05-09T04:45:19.811Z,99.99
2024-05-09T04:46:19.779Z,99.99
2024-05-09T04:47:20.017Z,99.99
2024-05-09T04:48:19.957Z,99.99
2024-05-09T04:49:19.949Z,99.99
2024-05-09T04:50:29.319Z,99.99
2024-05-09T04:51:19.736Z,99.99
2024-05-09T04:52:19.677Z,99.99
2024-05-09T04:53:19.770Z,99.99
2024-05-09T04:54:30.006Z,99.99
2024-05-09T04:55:19.652Z,99.99
2024-05-09T04:56:19.621Z,99.99
2024-05-09T04:57:19.618Z,99.99
2024-05-09T04:58:19.638Z,99.99
2024-05-09T04:59:19.619Z,99.99
2024-05-09T05:00:28.456Z,99.99
2024-05-09T05:01:19.591Z,99.99
2024-05-09T05:02:19.778Z,99.99
2024-05-09T05:03:19.780Z,99.99
2024-05-09T05:04:19.622Z,99.99
2024-05-09T05:05:19.577Z,99.99
2024-05-09T05:06:19.546Z,99.99
2024-05-09T05:07:19.501Z,99.99
2024-05-09T05:08:19.851Z,99.99
2024-05-09T05:09:19.452Z,99.99
2024-05-09T05:10:25.448Z,99.99
2024-05-09T05:11:19.518Z,99.99
2024-05-09T05:12:19.514Z,99.99
2024-05-09T05:13:20.922Z,99.99
2024-05-09T05:14:19.460Z,99.99
2024-05-09T05:15:19.381Z,99.99
2024-05-09T05:16:19.420Z,99.99
2024-05-09T05:17:19.494Z,99.99
2024-05-09T05:18:19.777Z,99.99
2024-05-09T05:19:19.438Z,99.99
2024-05-09T05:20:27.389Z,99.99
2024-05-09T05:21:19.564Z,99.99
2024-05-09T05:22:19.302Z,99.99
2024-05-09T05:23:19.370Z,99.99
2024-05-09T05:24:19.266Z,99.99
2024-05-09T05:25:19.265Z,99.99
2024-05-09T05:26:19.303Z,99.99
2024-05-09T05:27:19.245Z,99.99
2024-05-09T05:28:19.215Z,99.99
2024-05-09T05:29:20.958Z,99.99
2024-05-09T05:30:25.002Z,99.99
2024-05-09T05:31:19.250Z,99.99
2024-05-09T05:32:19.283Z,99.99
2024-05-09T05:33:19.837Z,99.99
2024-05-09T05:34:19.161Z,99.99
2024-05-09T05:35:19.159Z,99.99
2024-05-09T05:36:19.100Z,99.99
2024-05-09T05:37:19.094Z,99.99
2024-05-09T05:38:21.256Z,99.99
2024-05-09T05:39:19.108Z,99.99
2024-05-09T05:40:28.132Z,99.99
2024-05-09T05:41:19.126Z,99.99
2024-05-09T05:42:19.038Z,99.99
2024-05-09T05:43:19.034Z,99.99
2024-05-09T05:44:19.075Z,99.99
2024-05-09T05:45:19.019Z,99.99
2024-05-09T05:46:18.980Z,99.99
2024-05-09T05:47:19.093Z,99.99
2024-05-09T05:48:19.331Z,99.99
2024-05-09T05:49:19.014Z,99.99
2024-05-09T05:50:27.346Z,99.99
2024-05-09T05:51:19.147Z,99.99
2024-05-09T05:52:18.896Z,99.99
2024-05-09T05:53:18.925Z,99.99
2024-05-09T05:54:18.921Z,99.99
2024-05-09T05:55:18.872Z,99.99
2024-05-09T05:56:18.919Z,99.99
2024-05-09T05:57:18.831Z,99.99
2024-05-09T05:58:18.811Z,99.93
2024-05-09T05:59:19.039Z,99.63
2024-05-09T06:00:29.002Z,99.43
2024-05-09T06:01:18.862Z,99.27
2024-05-09T06:02:18.917Z,99.07
2024-05-09T06:03:18.778Z,98.86
2024-05-09T06:04:18.770Z,98.46
2024-05-09T06:05:18.821Z,97.95
2024-05-09T06:06:18.733Z,97.85
2024-05-09T06:07:18.697Z,98.00
2024-05-09T06:08:18.763Z,98.00
2024-05-09T06:09:18.679Z,98.00
2024-05-09T06:10:25.210Z,97.60
2024-05-09T06:11:18.752Z,97.39
2024-05-09T06:12:18.744Z,97.08
2024-05-09T06:13:18.657Z,96.94
2024-05-09T06:14:18.670Z,97.24
2024-05-09T06:15:18.606Z,97.04
2024-05-09T06:16:18.612Z,96.33
2024-05-09T06:17:18.665Z,95.61
2024-05-09T06:18:18.779Z,95.92
2024-05-09T06:19:18.642Z,96.08
2024-05-09T06:20:23.924Z,95.97
2024-05-09T06:21:18.589Z,95.47
2024-05-09T06:22:18.505Z,95.67
2024-05-09T06:23:18.664Z,95.67
2024-05-09T06:24:18.492Z,95.47
2024-05-09T06:25:18.463Z,95.62
2024-05-09T06:26:18.524Z,95.52
2024-05-09T06:27:18.448Z,95.32
2024-05-09T06:28:18.422Z,95.42
2024-05-09T06:29:18.489Z,94.91
2024-05-09T06:30:25.474Z,95.42
2024-05-09T06:31:18.417Z,95.58
2024-05-09T06:32:18.485Z,95.48
2024-05-09T06:33:18.736Z,95.48
2024-05-09T06:34:18.645Z,95.37
2024-05-09T06:35:18.437Z,94.35
2024-05-09T06:36:18.312Z,93.95
2024-05-09T06:37:18.299Z,94.46
2024-05-09T06:38:18.353Z,94.35
2024-05-09T06:39:18.355Z,94.05
2024-05-09T06:40:25.441Z,93.54
2024-05-09T06:41:18.342Z,93.60
2024-05-09T06:42:18.286Z,92.79
2024-05-09T06:43:19.558Z,92.38
2024-05-09T06:44:18.286Z,92.48
2024-05-09T06:45:18.213Z,91.66
2024-05-09T06:46:18.183Z,92.07
2024-05-09T06:47:18.310Z,92.07
2024-05-09T06:48:18.400Z,91.97
2024-05-09T06:49:18.315Z,91.31
2024-05-09T06:50:23.873Z,91.01
2024-05-09T06:51:18.180Z,91.22
2024-05-09T06:52:18.106Z,90.81
2024-05-09T06:53:18.152Z,89.59
2024-05-09T06:54:18.105Z,88.57
2024-05-09T06:55:18.108Z,89.59
2024-05-09T06:56:18.112Z,88.87
2024-05-09T06:57:18.057Z,90.05
2024-05-09T06:58:18.050Z,89.75
2024-05-09T06:59:18.173Z,89.03
2024-05-09T07:00:26.858Z,88.18
2024-05-09T07:01:18.056Z,87.47
2024-05-09T07:02:18.047Z,87.37
2024-05-09T07:03:19.341Z,87.37
2024-05-09T07:04:18.169Z,88.28
2024-05-09T07:05:18.026Z,87.98
2024-05-09T07:06:17.988Z,86.25
2024-05-09T07:07:17.907Z,85.13
2024-05-09T07:08:18.076Z,87.12
2024-05-09T07:09:17.911Z,84.21
2024-05-09T07:10:25.416Z,85.19
2024-05-09T07:11:18.006Z,87.02
2024-05-09T07:12:18.027Z,86.71
2024-05-09T07:13:17.999Z,87.12
2024-05-09T07:14:17.830Z,86.51
2024-05-09T07:15:17.807Z,86.31
2024-05-09T07:16:17.791Z,85.19
2024-05-09T07:17:17.904Z,83.67
2024-05-09T07:18:19.012Z,85.39
2024-05-09T07:19:17.898Z,85.86
2024-05-09T07:20:23.683Z,85.76
2024-05-09T07:21:17.866Z,84.23
2024-05-09T07:22:17.732Z,83.83
2024-05-09T07:23:17.875Z,85.35
2024-05-09T07:24:17.696Z,84.23
2024-05-09T07:25:17.692Z,82.81
2024-05-09T07:26:17.797Z,82.61
2024-05-09T07:27:17.658Z,83.79
2024-05-09T07:28:17.759Z,82.87
2024-05-09T07:29:17.681Z,81.79
2024-05-09T07:30:23.539Z,82.17
2024-05-09T07:31:17.633Z,82.06
2024-05-09T07:32:17.737Z,82.67
2024-05-09T07:33:17.984Z,82.47
2024-05-09T07:34:17.822Z,82.64
2024-05-09T07:35:17.594Z,83.54
2024-05-09T07:36:17.550Z,84.01
2024-05-09T07:37:17.535Z,81.48
2024-05-09T07:38:17.603Z,80.77
2024-05-09T07:39:17.507Z,81.54
2024-05-09T07:40:27.603Z,79.21
2024-05-09T07:41:17.508Z,80.39
2024-05-09T07:42:17.449Z,79.17
2024-05-09T07:43:17.458Z,79.74
2024-05-09T07:44:17.549Z,80.45
2024-05-09T07:45:33.167Z,78.22
2024-05-09T07:47:14.246Z,79.64
2024-05-09T07:50:34.141Z,78.79
2024-05-09T07:53:32.437Z,77.17
2024-05-09T07:53:49.394Z,76.67
2024-05-09T07:54:00.495Z,76.56
2024-05-09T07:54:56.087Z,77.78
2024-05-09T07:55:56.465Z,77.48
2024-05-09T07:56:56.060Z,75.85
2024-05-09T07:57:55.923Z,76.67
2024-05-09T07:58:56.196Z,76.43
2024-05-09T07:59:55.817Z,77.30
2024-05-09T08:00:55.953Z,74.40
2024-05-09T08:01:55.869Z,75.31
2024-05-09T08:02:55.805Z,76.70
2024-05-09T08:03:56.031Z,74.98
2024-05-09T08:04:55.874Z,76.39
2024-05-09T08:05:55.735Z,76.76
2024-05-09T08:06:55.798Z,74.63
2024-05-09T08:07:55.704Z,74.77
2024-05-09T08:08:56.014Z,74.57
2024-05-09T08:09:55.681Z,73.66
2024-05-09T08:10:55.740Z,74.13
2024-05-09T08:11:55.720Z,74.13
2024-05-09T08:12:55.683Z,74.54
2024-05-09T08:13:55.616Z,72.01
2024-05-09T08:14:55.633Z,74.10
2024-05-09T08:15:55.709Z,73.69
2024-05-09T08:16:55.591Z,72.78
2024-05-09T08:17:55.743Z,72.17
2024-05-09T08:18:55.627Z,71.26
2024-05-09T08:19:55.536Z,72.28
2024-05-09T08:20:55.589Z,73.49
2024-05-09T08:21:55.599Z,72.78
2024-05-09T08:22:55.502Z,70.15
2024-05-09T08:23:55.495Z,73.49
2024-05-09T08:24:55.574Z,71.47
2024-05-09T08:25:55.508Z,73.35
2024-05-09T08:26:55.451Z,71.91
2024-05-09T08:27:55.508Z,72.17
2024-05-09T08:28:55.500Z,72.07
2024-05-09T08:29:55.486Z,73.25
2024-05-09T08:30:55.503Z,72.61
2024-05-09T08:31:55.411Z,70.49
2024-05-09T08:32:55.414Z,71.97
2024-05-09T08:33:55.509Z,71.06
2024-05-09T08:34:55.393Z,69.45
2024-05-09T08:35:55.361Z,67.63
2024-05-09T08:36:56.289Z,67.63
2024-05-09T08:37:55.341Z,69.35
2024-05-09T08:38:55.375Z,68.85
2024-05-09T08:39:55.288Z,66.19
2024-05-09T08:40:55.322Z,67.40
2024-05-09T08:41:55.267Z,68.51
2024-05-09T08:42:55.292Z,67.00
2024-05-09T08:43:55.238Z,64.87
2024-05-09T08:44:55.247Z,67.10
2024-05-09T08:45:55.286Z,68.21
2024-05-09T08:46:55.211Z,69.82
2024-05-09T08:47:55.254Z,69.18
2024-05-09T08:48:55.398Z,68.17
2024-05-09T08:49:55.296Z,67.87
2024-05-09T08:50:55.154Z,66.76
2024-05-09T08:51:55.172Z,65.35
2024-05-09T08:52:55.112Z,66.42
2024-05-09T08:53:55.079Z,65.12
2024-05-09T08:54:55.186Z,65.32
2024-05-09T08:55:55.109Z,67.60
2024-05-09T08:56:55.092Z,64.78
2024-05-09T08:57:55.154Z,64.38
2024-05-09T08:58:55.021Z,62.57
2024-05-09T08:59:55.026Z,63.07
2024-05-09T09:00:55.127Z,63.47
2024-05-09T09:01:55.064Z,63.98
2024-05-09T09:02:55.042Z,63.47
2024-05-09T09:03:55.243Z,64.05
2024-05-09T09:04:55.021Z,64.05
2024-05-09T09:05:54.931Z,62.94
2024-05-09T09:06:57.687Z,64.55
2024-05-09T09:07:55.130Z,63.14
2024-05-09T09:08:54.902Z,64.42
2024-05-09T09:09:54.926Z,63.01
2024-05-09T09:10:54.974Z,62.41
2024-05-09T09:11:54.890Z,62.21
2024-05-09T09:12:54.883Z,62.44
2024-05-09T09:13:54.858Z,62.64
2024-05-09T09:14:54.820Z,63.71
2024-05-09T09:15:54.891Z,61.47
2024-05-09T09:16:54.829Z,60.47
2024-05-09T09:17:54.833Z,60.06
2024-05-09T09:18:55.006Z,60.69
2024-05-09T09:19:54.827Z,60.69
2024-05-09T09:20:54.802Z,61.20
2024-05-09T09:21:54.858Z,62.51
2024-05-09T09:22:54.694Z,61.37
2024-05-09T09:23:54.714Z,62.07
2024-05-09T09:24:54.687Z,61.74
2024-05-09T09:25:54.663Z,62.24
2024-05-09T09:26:54.799Z,59.63
2024-05-09T09:27:54.727Z,60.00
2024-05-09T09:28:55.116Z,60.00
2024-05-09T09:29:54.612Z,59.74
2024-05-09T09:30:54.632Z,60.33
2024-05-09T09:31:54.601Z,60.51
2024-05-09T09:32:54.705Z,58.60
2024-05-09T09:33:54.799Z,57.50
2024-05-09T09:34:54.638Z,57.97
2024-05-09T09:35:54.553Z,57.57
2024-05-09T09:36:54.570Z,57.87
2024-05-09T09:37:54.509Z,60.08
2024-05-09T09:38:54.502Z,58.77
2024-05-09T09:39:54.569Z,54.96
2024-05-09T09:40:54.543Z,56.16
2024-05-09T09:41:54.476Z,53.95
2024-05-09T09:42:54.520Z,55.86
2024-05-09T09:43:54.437Z,55.63
2024-05-09T09:45:02.208Z,56.23
2024-05-09T09:45:54.435Z,53.95
2024-05-09T09:46:54.449Z,55.05
2024-05-09T09:47:54.511Z,58.17
2024-05-09T09:48:54.486Z,55.66
2024-05-09T09:49:54.460Z,55.76
2024-05-09T09:50:54.344Z,53.55
2024-05-09T09:51:54.376Z,54.08
2024-05-09T09:52:54.319Z,54.98
2024-05-09T09:53:54.293Z,52.87
2024-05-09T09:54:54.418Z,55.48
2024-05-09T09:55:54.274Z,56.26
2024-05-09T09:56:54.267Z,56.63
2024-05-09T09:57:54.307Z,55.33
2024-05-09T09:58:54.278Z,52.72
2024-05-09T09:59:54.221Z,53.34
2024-05-09T10:00:54.386Z,53.14
2024-05-09T10:01:54.297Z,52.74
2024-05-09T10:02:54.218Z,53.95
2024-05-09T10:03:54.346Z,51.84
2024-05-09T10:04:54.274Z,52.64
2024-05-09T10:05:54.274Z,53.34
2024-05-09T10:06:54.218Z,53.45
2024-05-09T10:07:54.142Z,54.05
2024-05-09T10:08:54.095Z,55.96
2024-05-09T10:09:54.165Z,54.43
2024-05-09T10:10:54.301Z,53.30
2024-05-09T10:11:59.885Z,52.39
2024-05-09T10:12:54.136Z,53.50
2024-05-09T10:13:54.044Z,52.19
2024-05-09T10:14:54.058Z,50.99
2024-05-09T10:15:54.615Z,52.69
2024-05-09T10:16:53.997Z,51.89
2024-05-09T10:17:54.106Z,51.46
2024-05-09T10:18:54.146Z,53.97
2024-05-09T10:19:54.116Z,54.47
2024-05-09T10:20:53.960Z,53.17
2024-05-09T10:21:53.972Z,52.97
2024-05-09T10:22:53.939Z,51.97
2024-05-09T10:23:53.923Z,52.87
2024-05-09T10:24:54.054Z,50.41
2024-05-09T10:25:53.894Z,51.11
2024-05-09T10:26:53.884Z,52.32
2024-05-09T10:27:54.075Z,51.72
2024-05-09T10:28:53.851Z,53.32
2024-05-09T10:29:53.826Z,53.82
2024-05-09T10:30:53.908Z,53.32
2024-05-09T10:31:53.869Z,51.39
2024-05-09T10:32:53.910Z,50.89
2024-05-09T10:33:53.988Z,52.69
2024-05-09T10:34:53.799Z,50.99
2024-05-09T10:35:53.756Z,48.75
2024-05-09T10:36:53.858Z,51.87
2024-05-09T10:37:53.730Z,50.38
2024-05-09T10:38:53.721Z,51.99
2024-05-09T10:39:53.809Z,52.49
2024-05-09T10:40:53.726Z,52.39
2024-05-09T10:41:53.677Z,51.17
2024-05-09T10:42:53.656Z,49.96
2024-05-09T10:43:53.671Z,50.76
2024-05-09T10:44:53.642Z,53.47
2024-05-09T10:45:53.670Z,54.27
2024-05-09T10:46:53.623Z,55.58
2024-05-09T10:47:53.754Z,52.37
2024-05-09T10:48:53.774Z,50.46
2024-05-09T10:49:53.746Z,51.87
2024-05-09T10:50:53.555Z,51.46
2024-05-09T10:51:53.674Z,51.37
2024-05-09T10:52:53.577Z,50.94
2024-05-09T10:53:53.530Z,49.84
2024-05-09T10:54:53.566Z,52.82
2024-05-09T10:55:53.485Z,51.24
2024-05-09T10:56:53.503Z,51.24
2024-05-09T10:57:53.677Z,49.28
2024-05-09T10:58:53.445Z,49.38
2024-05-09T10:59:53.418Z,50.59
2024-05-09T11:00:53.573Z,51.19
2024-05-09T11:01:53.523Z,51.49
2024-05-09T11:02:53.405Z,50.29
2024-05-09T11:03:53.648Z,50.86
2024-05-09T11:04:53.495Z,52.07
2024-05-09T11:05:53.500Z,50.94
2024-05-09T11:06:53.385Z,50.54
2024-05-09T11:07:53.324Z,49.33
2024-05-09T11:08:53.349Z,49.74
2024-05-09T11:09:53.343Z,50.63
2024-05-09T11:10:53.535Z,52.04
2024-05-09T11:11:53.331Z,52.67
2024-05-09T11:12:53.304Z,53.75
2024-05-09T11:13:53.286Z,53.14
2024-05-09T11:14:53.288Z,54.45
2024-05-09T11:15:53.254Z,53.55
2024-05-09T11:16:53.230Z,52.94
2024-05-09T11:17:53.344Z,53.25
2024-05-09T11:18:53.322Z,52.75
2024-05-09T11:19:53.209Z,51.14
2024-05-09T11:20:53.232Z,52.34
2024-05-09T11:21:53.227Z,52.52
2024-05-09T11:22:53.129Z,51.01
2024-05-09T11:23:53.267Z,49.91
2024-05-09T11:24:53.304Z,49.51
2024-05-09T11:25:53.094Z,50.51
2024-05-09T11:26:53.100Z,48.91
2024-05-09T11:27:53.152Z,50.81
2024-05-09T11:28:53.072Z,51.42
2024-05-09T11:29:53.105Z,51.92
2024-05-09T11:30:53.024Z,51.12
2024-05-09T11:31:53.201Z,50.42
2024-05-09T11:32:53.195Z,50.63
2024-05-09T11:33:53.200Z,50.34
2024-05-09T11:34:52.985Z,50.94
2024-05-09T11:35:53.034Z,51.14
2024-05-09T11:36:53.100Z,52.04
2024-05-09T11:37:52.952Z,49.71
2024-05-09T11:38:52.986Z,52.52
2024-05-09T11:39:52.942Z,49.91
2024-05-09T11:40:52.940Z,49.81
2024-05-09T11:41:52.952Z,50.81
2024-05-09T11:42:53.587Z,50.01
2024-05-09T11:43:52.879Z,49.58
2024-05-09T11:44:52.883Z,52.39
2024-05-09T11:45:52.875Z,49.51
2024-05-09T11:46:52.834Z,48.81
2024-05-09T11:47:52.929Z,49.81
2024-05-09T11:48:52.949Z,50.11
2024-05-09T11:49:52.853Z,51.42
2024-05-09T11:50:52.823Z,50.51
2024-05-09T11:51:52.789Z,51.01
2024-05-09T11:52:52.756Z,49.61
2024-05-09T11:53:52.740Z,51.82
2024-05-09T11:54:53.617Z,49.31
2024-05-09T11:55:52.711Z,50.71
2024-05-09T11:56:52.741Z,50.51
2024-05-09T11:57:52.713Z,50.81
2024-05-09T11:58:52.713Z,51.01
2024-05-09T11:59:52.643Z,50.51
2024-05-09T12:00:52.801Z,47.91
2024-05-09T12:01:52.748Z,47.08
2024-05-09T12:02:52.747Z,48.99
2024-05-09T12:03:52.806Z,48.99
2024-05-09T12:04:52.659Z,49.66
2024-05-09T12:05:52.596Z,50.07
2024-05-09T12:06:52.678Z,49.16
2024-05-09T12:07:52.560Z,49.96
2024-05-09T12:08:52.577Z,49.69
2024-05-09T12:09:52.574Z,52.59
2024-05-09T12:10:52.719Z,50.49
2024-05-09T12:11:52.564Z,52.59
2024-05-09T12:12:52.528Z,50.69
2024-05-09T12:13:52.505Z,49.37
2024-05-09T12:14:52.464Z,47.66
2024-05-09T12:15:52.530Z,48.76
2024-05-09T12:16:52.488Z,48.76
2024-05-09T12:17:52.461Z,48.26
2024-05-09T12:18:52.617Z,49.79
2024-05-09T12:19:52.394Z,48.89
2024-05-09T12:20:52.379Z,47.16
2024-05-09T12:21:52.385Z,49.26
2024-05-09T12:22:52.354Z,51.67
2024-05-09T12:23:52.384Z,51.57
2024-05-09T12:24:52.376Z,49.07
2024-05-09T12:25:52.311Z,51.37
2024-05-09T12:26:52.291Z,51.87
2024-05-09T12:27:52.330Z,52.17
2024-05-09T12:28:52.334Z,50.46
2024-05-09T12:29:52.273Z,48.96
2024-05-09T12:30:52.294Z,51.87
2024-05-09T12:31:52.277Z,51.27
2024-05-09T12:32:52.236Z,50.76
2024-05-09T12:33:52.389Z,53.77
2024-05-09T12:34:52.183Z,48.36
2024-05-09T12:35:52.207Z,47.86
2024-05-09T12:36:52.193Z,49.66
2024-05-09T12:37:52.222Z,50.57
2024-05-09T12:38:52.215Z,49.87
2024-05-09T12:39:52.260Z,47.96
2024-05-09T12:40:52.370Z,48.26
2024-05-09T12:41:52.151Z,46.98
2024-05-09T12:42:52.125Z,47.88
2024-05-09T12:43:52.084Z,48.58
2024-05-09T12:44:52.052Z,48.57
2024-05-09T12:45:52.122Z,49.87
2024-05-09T12:46:52.072Z,48.26
2024-05-09T12:47:52.202Z,47.76
2024-05-09T12:48:52.348Z,48.07
2024-05-09T12:49:52.063Z,48.86
2024-05-09T12:50:52.072Z,51.67
2024-05-09T12:51:52.009Z,48.76
2024-05-09T12:52:51.955Z,47.86
2024-05-09T12:53:51.966Z,50.76
2024-05-09T12:54:51.985Z,49.26
2024-05-09T12:55:56.936Z,48.46